Time;durP1;ratioP1;P1;durP2;ratioP2;P2;SDS_P1;SDS_P2;PMS_P1;PMS_P2;Temp;Humidity;BMP_temperature;BMP_pressure;BME280_temperature;BME280_humidity;BME280_pressure;Samples;Min_cycle;Max_cycle;Signal;HPM_P1;HPM_P2
2023/05/01 00:01:35;;;;;;;0.77;0.77;;;;;;;12.53;100.00;99912.53;7400309;19;20495;-61
2023/05/01 00:04:01;;;;;;;1.30;1.20;;;;;;;12.44;100.00;99909.88;7396261;19;20010;-61
2023/05/01 00:06:27;;;;;;;2.58;0.77;;;;;;;12.36;100.00;99908.75;7396323;19;20455;-61
2023/05/01 00:08:53;;;;;;;0.52;0.52;;;;;;;12.89;100.00;99906.38;7396530;19;20347;-61
2023/05/01 00:11:19;;;;;;;1.40;1.13;;;;;;;12.92;100.00;99899.81;7395575;19;20014;-60
2023/05/01 00:13:46;;;;;;;2.17;0.68;;;;;;;12.73;100.00;99902.13;7399621;19;20014;-61
2023/05/01 00:16:13;;;;;;;0.90;0.45;;;;;;;12.22;100.00;99899.16;7396813;19;20490;-61
2023/05/01 00:18:40;;;;;;;1.42;1.15;;;;;;;12.05;100.00;99901.69;7395581;19;20342;-61
2023/05/01 00:21:06;;;;;;;0.22;0.22;;;;;;;12.04;100.00;99902.94;7397349;19;20015;-61
2023/05/01 00:23:32;;;;;;;1.35;0.95;;;;;;;12.09;100.00;99895.91;7397962;19;20010;-61
2023/05/01 00:25:58;;;;;;;0.60;0.57;;;;;;;12.07;100.00;99896.41;7397483;19;20450;-61
2023/05/01 00:28:24;;;;;;;3.15;1.10;;;;;;;10.47;100.00;99888.63;7395999;19;20010;-61
2023/05/01 00:30:51;;;;;;;0.93;0.82;;;;;;;9.15;100.00;99894.50;7395670;19;20011;-60
2023/05/01 00:33:17;;;;;;;0.38;0.38;;;;;;;8.65;100.00;99897.91;7398705;19;20023;-61
2023/05/01 00:35:44;;;;;;;1.08;0.47;;;;;;;10.47;100.00;99877.50;7395343;19;20014;-61
2023/05/01 00:38:11;;;;;;;1.45;0.95;;;;;;;13.80;100.00;99874.78;7396384;19;20018;-61
2023/05/01 00:40:44;;;;;;;0.40;0.40;;;;;;;17.35;100.00;99864.59;7394770;19;20011;-61
2023/05/01 00:43:11;;;;;;;2.13;0.50;;;;;;;13.50;100.00;99873.50;7394719;19;20014;-61
2023/05/01 00:45:42;;;;;;;0.93;0.63;;;;;;;11.66;100.00;99880.75;7396226;19;20028;-61
2023/05/01 00:48:08;;;;;;;0.50;0.47;;;;;;;11.74;100.00;99876.34;7394021;19;20014;-68
2023/05/01 00:50:35;;;;;;;0.70;0.70;;;;;;;14.65;100.00;99872.78;7396411;19;20011;-69
2023/05/01 00:53:01;;;;;;;0.80;0.80;;;;;;;10.99;100.00;99883.59;7396439;19;20010;-69
2023/05/01 00:55:28;;;;;;;2.63;1.45;;;;;;;10.25;100.00;99879.78;7398825;19;20355;-69
2023/05/01 00:57:56;;;;;;;1.35;0.98;;;;;;;10.00;100.00;99882.22;7395094;19;20830;-70
2023/05/01 01:00:23;;;;;;;6.97;0.55;;;;;;;9.96;100.00;99887.97;7394658;19;20010;-69
2023/05/01 01:02:50;;;;;;;4.60;1.00;;;;;;;10.49;100.00;99874.22;7395655;19;20014;-68
2023/05/01 01:05:20;;;;;;;3.85;1.30;;;;;;;11.20;100.00;99876.88;7397947;19;20021;-68
2023/05/01 01:08:21;;;;;;;0.95;0.95;;;;;;;9.30;100.00;99875.97;7395087;19;20021;-68
2023/05/01 01:11:27;;;;;;;0.22;0.22;;;;;;;10.27;100.00;99874.53;7396231;19;20011;-68
2023/05/01 01:14:09;;;;;;;7.70;0.75;;;;;;;11.62;100.00;99863.44;7397177;19;20363;-68
2023/05/01 01:16:44;;;;;;;1.08;0.77;;;;;;;11.26;100.00;99864.59;7394060;19;20014;-68
2023/05/01 01:19:32;;;;;;;1.25;1.15;;;;;;;11.76;100.00;99868.25;7394695;19;20346;-68
2023/05/01 01:22:06;;;;;;;1.15;0.47;;;;;;;11.33;100.00;99863.44;7394836;19;20011;-67
2023/05/01 01:25:13;;;;;;;3.63;0.68;;;;;;;11.34;100.00;99854.63;7398299;19;20011;-68
2023/05/01 01:28:12;;;;;;;3.25;1.25;;;;;;;11.28;100.00;99855.75;7393002;19;20022;-68
2023/05/01 01:30:41;;;;;;;1.65;0.75;;;;;;;11.15;100.00;99849.69;7393144;19;20025;-68
2023/05/01 01:33:37;;;;;;;2.30;0.68;;;;;;;10.99;100.00;99844.59;7396453;19;20340;-68
2023/05/01 01:36:12;;;;;;;2.25;1.13;;;;;;;10.37;100.00;99850.19;7395167;19;20043;-68
2023/05/01 01:38:47;;;;;;;1.02;0.75;;;;;;;10.93;100.00;99840.94;7394674;19;20363;-68
2023/05/01 01:41:26;;;;;;;1.20;0.95;;;;;;;10.35;100.00;99838.78;7394781;19;20010;-67
2023/05/01 01:44:33;;;;;;;0.55;0.55;;;;;;;10.07;100.00;99843.69;7396361;19;20010;-68
2023/05/01 01:47:04;;;;;;;3.03;0.95;;;;;;;10.58;100.00;99835.19;7394177;19;20301;-66
2023/05/01 01:49:33;;;;;;;0.63;0.50;;;;;;;11.29;100.00;99835.00;7393446;19;20055;-65
2023/05/01 01:52:02;;;;;;;1.95;0.73;;;;;;;11.63;100.00;99825.91;7392472;19;20463;-65
2023/05/01 01:54:39;;;;;;;0.28;0.28;;;;;;;11.23;100.00;99826.53;7396555;19;20021;-65
2023/05/01 01:57:08;;;;;;;1.30;1.20;;;;;;;10.87;100.00;99826.88;7396251;19;20478;-65
2023/05/01 01:59:34;;;;;;;4.20;1.23;;;;;;;11.48;100.00;99825.16;7392558;19;20015;-65
2023/05/01 02:02:03;;;;;;;4.60;0.73;;;;;;;11.04;100.00;99830.00;7391922;19;20392;-65
2023/05/01 02:04:31;;;;;;;1.42;0.82;;;;;;;11.20;100.00;99827.50;7394889;19;20018;-65
2023/05/01 02:07:00;;;;;;;3.47;0.50;;;;;;;10.45;100.00;99831.88;7393510;19;20039;-65
2023/05/01 02:09:28;;;;;;;0.85;0.55;;;;;;;10.22;100.00;99830.63;7391250;19;20035;-65
2023/05/01 02:11:56;;;;;;;17.10;1.25;;;;;;;11.08;100.00;99836.13;7391364;19;20058;-65
2023/05/01 02:14:25;;;;;;;8.57;0.93;;;;;;;10.59;100.00;99829.13;7395080;19;20017;-65
2023/05/01 02:16:51;;;;;;;5.30;1.17;;;;;;;11.41;100.00;99828.38;7396961;19;20036;-65
2023/05/01 02:19:20;;;;;;;8.77;1.85;;;;;;;10.88;100.00;99822.84;7393240;19;20010;-63
2023/05/01 02:21:48;;;;;;;6.22;1.02;;;;;;;11.00;100.00;99823.84;7393113;19;20018;-65
2023/05/01 02:24:17;;;;;;;2.67;0.50;;;;;;;13.41;100.00;99807.31;7392934;19;20050;-64
2023/05/01 02:26:54;;;;;;;0.95;0.52;;;;;;;10.07;100.00;99813.06;7395558;19;20014;-64
2023/05/01 02:29:20;;;;;;;0.68;0.57;;;;;;;11.67;100.00;99822.97;7391503;19;20018;-63
2023/05/01 02:31:46;;;;;;;0.77;0.52;;;;;;;13.78;100.00;99806.56;7392782;19;20014;-63
2023/05/01 02:34:13;;;;;;;4.10;0.40;;;;;;;10.38;100.00;99812.75;7395421;19;20081;-63
2023/05/01 02:36:39;;;;;;;0.85;0.85;;;;;;;8.99;100.00;99817.81;7393265;19;20491;-64
2023/05/01 02:39:06;;;;;;;0.70;0.70;;;;;;;8.58;100.00;99821.25;7391885;19;20011;-64
2023/05/01 02:41:35;;;;;;;1.85;0.30;;;;;;;8.42;100.00;99832.69;7390786;19;20015;-63
2023/05/01 02:44:03;;;;;;;0.57;0.30;;;;;;;9.39;100.00;99823.16;7396286;19;20031;-64
2023/05/01 02:46:32;;;;;;;1.27;0.73;;;;;;;10.32;100.00;99811.88;7397287;19;20034;-64
2023/05/01 02:49:01;;;;;;;0.55;0.55;;;;;;;10.56;100.00;99807.06;7389928;19;20479;-63
2023/05/01 02:51:30;;;;;;;1.60;0.55;;;;;;;10.47;100.00;99812.69;7387514;19;20057;-63
2023/05/01 02:53:58;;;;;;;0.40;0.40;;;;;;;10.30;100.00;99809.56;7394963;19;20014;-63
2023/05/01 02:56:28;;;;;;;1.05;1.05;;;;;;;9.51;100.00;99813.81;7389299;19;20021;-63
2023/05/01 02:58:54;;;;;;;0.63;0.55;;;;;;;10.01;100.00;99812.19;7390008;19;20462;-64
2023/05/01 03:01:21;;;;;;;0.85;0.40;;;;;;;8.55;100.00;99815.88;7391855;19;20365;-64
2023/05/01 03:03:48;;;;;;;0.68;0.40;;;;;;;12.64;100.00;99795.34;7394505;19;20380;-64
2023/05/01 03:06:14;;;;;;;0.43;0.30;;;;;;;13.14;100.00;99796.66;7395921;19;20006;-64
2023/05/01 03:08:40;;;;;;;3.05;1.02;;;;;;;12.66;100.00;99793.59;7399523;19;20010;-64
2023/05/01 03:11:07;;;;;;;0.90;0.52;;;;;;;14.25;100.00;99783.44;7400212;19;20038;-64
2023/05/01 03:13:34;;;;;;;0.82;0.70;;;;;;;14.81;100.00;99785.16;7399996;19;20049;-63
2023/05/01 03:16:00;;;;;;;0.95;0.65;;;;;;;10.55;100.00;99797.91;7398917;19;20015;-63
2023/05/01 03:18:27;;;;;;;10.60;0.85;;;;;;;9.95;100.00;99800.19;7399590;19;20112;-64
2023/05/01 03:20:55;;;;;;;0.63;0.32;;;;;;;9.04;100.00;99810.88;7397687;19;20010;-64
2023/05/01 03:23:22;;;;;;;2.05;0.60;;;;;;;8.83;100.00;99820.94;7398581;19;20467;-64
2023/05/01 03:25:49;;;;;;;0.77;0.40;;;;;;;8.76;100.00;99817.69;7397963;19;20011;-64
2023/05/01 03:28:16;;;;;;;0.43;0.38;;;;;;;8.71;100.00;99819.09;7398401;19;20007;-64
2023/05/01 03:30:45;;;;;;;0.77;0.43;;;;;;;8.71;100.00;99821.88;7396296;19;20035;-64
2023/05/01 03:33:12;;;;;;;1.55;1.02;;;;;;;8.72;100.00;99817.09;7398613;19;20019;-64
2023/05/01 03:35:38;;;;;;;2.08;0.95;;;;;;;8.73;100.00;99815.84;7398546;19;20102;-64
2023/05/01 03:38:05;;;;;;;1.50;0.50;;;;;;;8.78;100.00;99818.78;7397039;19;20014;-64
2023/05/01 03:40:54;;;;;;;0.30;0.30;;;;;;;8.83;100.00;99809.84;7396966;19;20015;-64
2023/05/01 03:43:39;;;;;;;1.25;1.17;;;;;;;8.79;100.00;99817.53;7399627;19;20014;-65
2023/05/01 03:46:11;;;;;;;1.13;0.30;;;;;;;8.97;100.00;99820.31;7396995;19;20014;-64
2023/05/01 03:48:38;;;;;;;3.15;1.15;;;;;;;8.85;100.00;99824.03;7398789;19;20010;-64
2023/05/01 03:51:04;;;;;;;1.15;0.63;;;;;;;8.84;100.00;99816.94;7398278;19;20471;-64
2023/05/01 03:53:31;;;;;;;0.75;0.65;;;;;;;8.85;100.00;99824.03;7399143;19;20014;-65
2023/05/01 03:55:58;;;;;;;0.40;0.32;;;;;;;8.87;100.00;99827.13;7398202;19;20368;-64
2023/05/01 03:58:24;;;;;;;1.85;0.30;;;;;;;8.90;100.00;99820.63;7396268;19;20066;-64
2023/05/01 04:00:50;;;;;;;1.15;0.28;;;;;;;8.93;100.00;99830.81;7396205;19;20022;-64
2023/05/01 04:03:16;;;;;;;0.35;0.35;;;;;;;8.92;100.00;99823.69;7398244;19;20522;-64
2023/05/01 04:05:44;;;;;;;1.15;0.80;;;;;;;8.99;100.00;99823.38;7400628;19;20045;-64
2023/05/01 04:08:10;;;;;;;0.15;0.10;;;;;;;8.96;100.00;99821.56;7396305;19;20010;-64
2023/05/01 04:10:36;;;;;;;1.45;0.63;;;;;;;9.05;100.00;99834.66;7395854;19;20026;-64
2023/05/01 04:13:05;;;;;;;0.45;0.43;;;;;;;8.99;100.00;99828.94;7397829;19;20462;-64
2023/05/01 04:15:31;;;;;;;0.52;0.20;;;;;;;9.00;100.00;99830.50;7395496;19;20010;-64
2023/05/01 04:17:58;;;;;;;0.40;0.40;;;;;;;9.09;100.00;99827.72;7393398;19;20014;-65
2023/05/01 04:20:24;;;;;;;1.80;0.45;;;;;;;9.07;100.00;99832.94;7396319;19;20010;-64
2023/05/01 04:22:50;;;;;;;0.17;0.17;;;;;;;9.14;100.00;99832.63;7397269;19;20018;-65
2023/05/01 04:25:17;;;;;;;2.33;0.47;;;;;;;9.13;100.00;99833.88;7393993;19;20015;-65
2023/05/01 04:27:45;;;;;;;0.63;0.63;;;;;;;9.37;100.00;99830.41;7395256;19;20022;-64
2023/05/01 04:30:12;;;;;;;2.33;1.13;;;;;;;9.24;100.00;99833.38;7396445;19;20022;-64
2023/05/01 04:32:38;;;;;;;1.75;1.02;;;;;;;9.26;100.00;99838.47;7395694;19;20043;-64
2023/05/01 04:35:05;;;;;;;1.35;1.02;;;;;;;9.48;100.00;99836.25;7395716;19;20015;-67
2023/05/01 04:37:31;;;;;;;0.40;0.30;;;;;;;9.31;100.00;99832.28;7395729;19;20048;-68
2023/05/01 04:39:57;;;;;;;7.57;0.90;;;;;;;9.54;100.00;99834.34;7394979;19;20328;-67
2023/05/01 04:42:30;;;;;;;11.98;1.08;;;;;;;9.30;100.00;99836.28;7396268;19;20006;-65
2023/05/01 04:44:56;;;;;;;0.85;0.65;;;;;;;9.22;100.00;99837.84;7394364;19;20010;-64
2023/05/01 04:47:23;;;;;;;0.73;0.38;;;;;;;9.22;100.00;99844.19;7396524;19;20017;-64
2023/05/01 04:49:49;;;;;;;1.08;0.40;;;;;;;9.44;100.00;99836.38;7396422;19;20031;-64
2023/05/01 04:52:16;;;;;;;0.98;0.40;;;;;;;9.64;100.00;99841.41;7394814;19;20367;-65
2023/05/01 04:54:49;;;;;;;1.92;1.00;;;;;;;9.63;100.00;99839.88;7394792;19;20025;-65
2023/05/01 04:57:16;;;;;;;2.95;0.35;;;;;;;9.59;100.00;99836.50;7398838;19;20006;-66
2023/05/01 04:59:42;;;;;;;0.65;0.63;;;;;;;9.42;100.00;99843.69;7394566;19;20014;-65
2023/05/01 05:02:10;;;;;;;5.03;1.15;;;;;;;9.67;100.00;99843.28;7394736;19;20050;-67
2023/05/01 05:04:36;;;;;;;1.00;0.20;;;;;;;9.71;100.00;99835.53;7397158;19;20018;-67
2023/05/01 05:07:02;;;;;;;0.38;0.30;;;;;;;9.68;100.00;99840.00;7396089;19;20015;-67
2023/05/01 05:09:48;;;;;;;2.10;0.68;;;;;;;10.53;100.00;99839.41;7393634;19;20014;-67
2023/05/01 05:12:14;;;;;;;1.27;0.68;;;;;;;10.52;100.00;99837.88;7393878;19;20010;-67
2023/05/01 05:14:41;;;;;;;0.20;0.20;;;;;;;10.02;100.00;99836.00;7393699;19;20022;-67
2023/05/01 05:17:08;;;;;;;3.78;0.98;;;;;;;10.63;100.00;99834.53;7393005;19;20368;-66
2023/05/01 05:19:35;;;;;;;0.40;0.40;;;;;;;10.38;100.00;99833.00;7393241;19;20368;-66
2023/05/01 05:22:02;;;;;;;0.10;0.10;;;;;;;10.08;100.00;99834.09;7394319;19;20015;-66
2023/05/01 05:24:31;;;;;;;1.45;0.35;;;;;;;10.25;100.00;99843.63;7396665;19;20015;-67
2023/05/01 05:26:57;;;;;;;3.03;1.08;;;;;;;10.37;100.00;99844.63;7398417;19;20035;-67
2023/05/01 05:29:23;;;;;;;5.10;1.23;;;;;;;12.38;100.00;99844.78;7392994;19;20359;-67
2023/05/01 05:31:50;;;;;;;2.85;1.00;;;;;;;10.28;100.00;99841.91;7393090;19;20027;-67
2023/05/01 05:34:18;;;;;;;0.77;0.77;;;;;;;10.12;100.00;99854.19;7397744;19;20042;-68
2023/05/01 05:36:44;;;;;;;3.13;0.70;;;;;;;10.22;100.00;99863.28;7393138;19;20011;-68
2023/05/01 05:39:12;;;;;;;1.02;0.88;;;;;;;10.15;100.00;99860.84;7393043;19;20018;-68
2023/05/01 05:41:38;;;;;;;1.75;0.75;;;;;;;10.42;100.00;99858.66;7393188;19;20036;-68
2023/05/01 05:44:04;;;;;;;2.70;0.85;;;;;;;10.59;100.00;99865.34;7397047;19;20467;-68
2023/05/01 05:46:30;;;;;;;10.50;1.58;;;;;;;10.57;100.00;99867.81;7393524;19;20014;-68
2023/05/01 05:48:56;;;;;;;2.10;0.55;;;;;;;10.70;100.00;99872.41;7391893;19;20019;-69
2023/05/01 05:51:23;;;;;;;0.85;0.63;;;;;;;10.77;100.00;99872.00;7392215;19;20006;-67
2023/05/01 05:53:50;;;;;;;3.88;1.20;;;;;;;10.72;100.00;99875.47;7396151;19;20011;-69
2023/05/01 05:56:16;;;;;;;4.18;0.93;;;;;;;11.07;100.00;99862.47;7395725;19;20011;-69
2023/05/01 05:58:44;;;;;;;6.75;1.70;;;;;;;11.29;100.00;99868.44;7391524;19;20495;-69
2023/05/01 06:01:10;;;;;;;2.17;1.10;;;;;;;12.14;100.00;99865.28;7393285;19;20043;-69
2023/05/01 06:03:38;;;;;;;0.80;0.80;;;;;;;11.29;100.00;99862.88;7394132;19;20013;-67
2023/05/01 06:06:04;;;;;;;0.88;0.52;;;;;;;11.37;100.00;99864.00;7392216;19;20025;-69
2023/05/01 06:08:31;;;;;;;1.45;1.05;;;;;;;11.41;100.00;99865.38;7393642;19;20025;-68
2023/05/01 06:10:57;;;;;;;1.60;1.13;;;;;;;11.58;100.00;99865.66;7392695;19;20031;-68
2023/05/01 06:13:24;;;;;;;3.90;1.40;;;;;;;11.77;100.00;99869.81;7394098;19;20013;-68
2023/05/01 06:15:50;;;;;;;2.38;1.40;;;;;;;13.09;100.00;99858.88;7391960;19;20015;-68
2023/05/01 06:18:17;;;;;;;10.95;2.08;;;;;;;12.79;100.00;99843.53;7391744;19;20039;-68
2023/05/01 06:20:44;;;;;;;1.83;0.85;;;;;;;12.59;100.00;99857.50;7391763;19;20025;-68
2023/05/01 06:23:12;;;;;;;4.85;1.60;;;;;;;12.76;100.00;99861.25;7393096;19;20538;-68
2023/05/01 06:25:57;;;;;;;1.55;0.80;;;;;;;12.68;100.00;99862.94;7392409;19;20022;-68
2023/05/01 06:28:23;;;;;;;1.27;0.90;;;;;;;13.24;100.00;99865.13;7391036;19;20030;-68
2023/05/01 06:30:50;;;;;;;14.50;2.75;;;;;;;13.69;100.00;99844.66;7391461;19;20035;-68
2023/05/01 06:33:18;;;;;;;6.80;1.05;;;;;;;13.76;100.00;99848.28;7394179;19;20011;-68
2023/05/01 06:35:50;;;;;;;4.97;2.40;;;;;;;13.71;100.00;99846.97;7391489;19;20014;-68
2023/05/01 06:38:16;;;;;;;1.88;1.15;;;;;;;13.01;100.00;99856.97;7392705;19;20490;-68
2023/05/01 06:40:45;;;;;;;3.33;1.38;;;;;;;13.02;100.00;99867.66;7391840;19;20048;-68
2023/05/01 06:43:12;;;;;;;4.47;1.55;;;;;;;12.88;100.00;99877.69;7400135;19;20018;-68
2023/05/01 06:45:40;;;;;;;3.20;1.08;;;;;;;12.79;100.00;99885.44;7398875;19;20340;-68
2023/05/01 06:48:06;;;;;;;4.68;1.70;;;;;;;13.17;100.00;99881.56;7398887;19;20010;-66
2023/05/01 06:50:35;;;;;;;3.50;2.50;;;;;;;12.64;100.00;99884.75;7400134;19;20018;-67
2023/05/01 06:53:01;;;;;;;4.70;2.17;;;;;;;12.48;100.00;99888.06;7400993;19;20033;-66
2023/05/01 06:55:32;;;;;;;7.22;2.53;;;;;;;13.22;100.00;99884.44;7399301;19;20372;-67
2023/05/01 06:57:58;;;;;;;10.80;1.40;;;;;;;12.87;100.00;99892.13;7399761;19;20343;-67
2023/05/01 07:00:24;;;;;;;8.23;3.00;;;;;;;12.75;100.00;99884.88;7399735;19;20239;-66
2023/05/01 07:02:50;;;;;;;5.90;1.98;;;;;;;12.36;100.00;99897.56;7400629;19;20070;-66
2023/05/01 07:05:17;;;;;;;7.47;3.17;;;;;;;12.75;100.00;99901.66;7400555;19;20843;-67
2023/05/01 07:07:43;;;;;;;5.63;1.83;;;;;;;13.10;100.00;99898.78;7399427;19;20066;-65
2023/05/01 07:10:09;;;;;;;6.07;1.80;;;;;;;13.00;100.00;99884.16;7397023;19;20015;-65
2023/05/01 07:12:35;;;;;;;4.45;1.48;;;;;;;12.80;100.00;99896.13;7399220;19;20010;-65
2023/05/01 07:15:02;;;;;;;4.63;2.40;;;;;;;14.07;100.00;99881.84;7397787;19;20074;-66
2023/05/01 07:17:28;;;;;;;7.85;2.90;;;;;;;12.62;100.00;99898.44;7401175;19;20011;-65
2023/05/01 07:19:54;;;;;;;7.80;2.83;;;;;;;12.35;100.00;99902.38;7402889;19;20011;-66
2023/05/01 07:22:20;;;;;;;7.97;2.35;;;;;;;12.84;100.00;99909.91;7402370;19;20361;-65
2023/05/01 07:24:47;;;;;;;6.72;2.83;;;;;;;13.89;100.00;99901.81;7397537;19;20018;-64
2023/05/01 07:27:13;;;;;;;7.28;2.20;;;;;;;15.14;100.00;99891.81;7402958;19;20015;-66
2023/05/01 07:29:40;;;;;;;6.82;2.60;;;;;;;12.62;100.00;99906.81;7398573;19;20241;-64
2023/05/01 07:32:06;;;;;;;10.75;2.72;;;;;;;12.17;100.00;99908.97;7397888;19;20082;-64
2023/05/01 07:34:33;;;;;;;4.95;1.58;;;;;;;12.02;100.00;99919.41;7403006;19;20020;-64
2023/05/01 07:36:59;;;;;;;9.50;3.20;;;;;;;11.89;100.00;99927.31;7399460;19;20014;-64
2023/05/01 07:39:25;;;;;;;5.45;2.83;;;;;;;12.33;100.00;99910.47;7398608;19;20019;-64
2023/05/01 07:41:51;;;;;;;13.10;2.83;;;;;;;12.36;100.00;99934.66;7398717;19;20015;-64
2023/05/01 07:44:18;;;;;;;10.15;2.90;;;;;;;12.07;100.00;99924.31;7400923;19;20014;-64
2023/05/01 07:46:44;;;;;;;8.05;3.35;;;;;;;11.81;100.00;99937.34;7397073;19;20015;-64
2023/05/01 07:49:10;;;;;;;8.48;2.60;;;;;;;11.78;100.00;99943.88;7398675;19;20034;-64
2023/05/01 07:51:36;;;;;;;5.97;2.85;;;;;;;12.18;100.00;99938.44;7397164;19;20007;-64
2023/05/01 07:54:03;;;;;;;14.27;5.13;;;;;;;12.06;100.00;99942.31;7401212;19;20022;-64
2023/05/01 07:56:30;;;;;;;10.02;3.42;;;;;;;11.69;100.00;99951.59;7400158;19;20037;-64
2023/05/01 07:58:56;;;;;;;11.73;3.00;;;;;;;13.36;100.00;99949.94;7397344;19;20007;-64
2023/05/01 08:01:22;;;;;;;9.95;4.20;;;;;;;14.07;100.00;99935.06;7397882;19;20092;-64
2023/05/01 08:03:48;;;;;;;11.70;3.38;;;;;;;14.35;100.00;99930.47;7399988;19;20025;-64
2023/05/01 08:06:15;;;;;;;10.52;4.13;;;;;;;13.92;100.00;99935.19;7397480;19;20018;-64
2023/05/01 08:08:41;;;;;;;8.63;3.65;;;;;;;14.19;100.00;99937.44;7397893;19;20455;-64
2023/05/01 08:11:08;;;;;;;9.57;3.55;;;;;;;13.91;100.00;99936.47;7394898;19;20337;-66
2023/05/01 08:13:34;;;;;;;8.05;3.83;;;;;;;13.90;100.00;99937.72;7398932;19;20022;-65
2023/05/01 08:16:02;;;;;;;4.20;2.30;;;;;;;14.42;100.00;99939.16;7396988;19;20014;-65
2023/05/01 08:18:29;;;;;;;13.25;3.88;;;;;;;13.77;100.00;99931.00;7396777;19;20007;-69
2023/05/01 08:20:55;;;;;;;4.95;2.80;;;;;;;13.72;100.00;99937.31;7397764;19;20023;-64
2023/05/01 08:23:24;;;;;;;12.80;3.70;;;;;;;13.13;100.00;99932.13;7397779;19;20396;-65
2023/05/01 08:25:51;;;;;;;5.85;2.65;;;;;;;13.11;100.00;99950.63;7398992;19;20032;-65
2023/05/01 08:28:19;;;;;;;7.55;2.40;;;;;;;13.45;100.00;99947.72;7397265;19;20018;-65
2023/05/01 08:30:47;;;;;;;3.47;2.15;;;;;;;15.11;100.00;99943.34;7394820;19;20014;-64
2023/05/01 08:33:14;;;;;;;3.53;2.05;;;;;;;14.03;100.00;99935.31;7398520;19;20015;-64
2023/05/01 08:35:41;;;;;;;3.53;1.45;;;;;;;13.74;100.00;99948.75;7395775;19;20027;-64
2023/05/01 08:38:07;;;;;;;3.80;2.15;;;;;;;13.54;100.00;99953.16;7399103;19;20515;-64
2023/05/01 08:40:36;;;;;;;3.80;1.48;;;;;;;13.62;100.00;99950.72;7396762;19;20043;-63
2023/05/01 08:43:03;;;;;;;5.10;2.15;;;;;;;13.67;100.00;99955.56;7397549;19;20447;-63
2023/05/01 08:45:36;;;;;;;6.47;1.60;;;;;;;13.62;100.00;99962.66;7393518;19;20015;-64
2023/05/01 08:48:06;;;;;;;1.15;0.77;;;;;;;13.77;100.00;99967.38;7395418;19;20444;-64
2023/05/01 08:50:35;;;;;;;5.57;1.35;;;;;;;14.00;100.00;99966.31;7395463;19;20536;-66
2023/05/01 08:53:03;;;;;;;2.97;1.92;;;;;;;13.83;100.00;99965.41;7398457;19;20663;-64
2023/05/01 08:55:31;;;;;;;2.58;1.48;;;;;;;13.82;100.00;99969.47;7396513;19;20022;-64
2023/05/01 08:57:58;;;;;;;2.08;0.55;;;;;;;13.75;100.00;99969.91;7394567;19;20021;-66
2023/05/01 09:00:26;;;;;;;2.13;0.80;;;;;;;13.62;100.00;99973.84;7394722;19;20070;-65
2023/05/01 09:02:52;;;;;;;3.30;1.10;;;;;;;13.58;100.00;99970.50;7395391;19;20356;-66
2023/05/01 09:05:19;;;;;;;3.78;0.90;;;;;;;13.68;100.00;99963.50;7396964;19;20022;-66
2023/05/01 09:07:46;;;;;;;1.50;0.85;;;;;;;14.02;100.00;99961.75;7395411;19;20014;-66
2023/05/01 09:10:15;;;;;;;1.98;1.30;;;;;;;14.19;100.00;99959.06;7395233;19;20337;-65
2023/05/01 09:12:45;;;;;;;7.35;1.15;;;;;;;14.08;100.00;99962.56;7396099;19;20418;-66
2023/05/01 09:15:12;;;;;;;4.03;1.27;;;;;;;13.99;100.00;99976.00;7395407;19;20337;-67
2023/05/01 09:17:39;;;;;;;1.23;1.02;;;;;;;13.91;100.00;99972.06;7395661;19;20406;-65
2023/05/01 09:20:06;;;;;;;2.05;1.42;;;;;;;13.83;100.00;99982.19;7395786;19;20474;-64
2023/05/01 09:22:33;;;;;;;5.18;0.85;;;;;;;13.90;100.00;99987.34;7394746;19;20002;-65
2023/05/01 09:25:00;;;;;;;0.75;0.45;;;;;;;13.93;100.00;99986.34;7393265;19;20018;-64
2023/05/01 09:27:28;;;;;;;1.33;0.68;;;;;;;13.86;100.00;99992.41;7399088;19;20015;-64
2023/05/01 09:29:55;;;;;;;0.65;0.32;;;;;;;13.82;100.00;99998.22;7394786;19;20474;-64
2023/05/01 09:32:28;;;;;;;1.77;0.60;;;;;;;13.73;100.00;99994.81;7392880;19;20037;-65
2023/05/01 09:35:08;;;;;;;2.30;0.75;;;;;;;13.72;100.00;100001.66;7394637;19;20014;-64
2023/05/01 09:37:34;;;;;;;0.28;0.28;;;;;;;13.66;100.00;100007.97;7394378;19;20021;-64
2023/05/01 09:40:03;;;;;;;1.85;0.43;;;;;;;13.56;100.00;100003.03;7394389;19;20007;-63
2023/05/01 09:42:33;;;;;;;4.53;1.70;;;;;;;13.58;100.00;100006.09;7395073;19;20018;-64
2023/05/01 09:45:02;;;;;;;3.33;1.27;;;;;;;13.47;100.00;100000.41;7391543;19;20064;-65
2023/05/01 09:47:29;;;;;;;1.52;0.40;;;;;;;13.35;100.00;100007.91;7394807;19;20018;-65
2023/05/01 09:49:56;;;;;;;0.93;0.40;;;;;;;13.23;100.00;100014.59;7394423;19;20351;-60
2023/05/01 09:52:26;;;;;;;2.50;0.55;;;;;;;13.13;100.00;100021.59;7394578;19;20015;-59
2023/05/01 09:55:12;;;;;;;0.57;0.30;;;;;;;13.10;100.00;100017.00;7392602;19;20356;-62
2023/05/01 09:57:39;;;;;;;0.88;0.40;;;;;;;13.19;100.00;100019.63;7398307;19;20506;-60
2023/05/01 10:00:07;;;;;;;1.40;0.20;;;;;;;13.49;100.00;100012.63;7394032;19;20021;-60
2023/05/01 10:02:33;;;;;;;1.30;0.63;;;;;;;13.69;100.00;100011.81;7394876;19;20025;-61
2023/05/01 10:05:00;;;;;;;0.95;0.43;;;;;;;13.76;100.00;100019.00;7394782;19;20343;-60
2023/05/01 10:07:26;;;;;;;1.55;0.52;;;;;;;13.94;100.00;100010.28;7393556;19;20014;-62
2023/05/01 10:09:52;;;;;;;2.70;1.23;;;;;;;14.39;100.00;100004.59;7393929;19;20507;-62
2023/05/01 10:12:24;;;;;;;1.23;0.40;;;;;;;14.50;100.00;100006.72;7394717;19;20018;-63
2023/05/01 10:14:54;;;;;;;0.50;0.25;;;;;;;14.70;100.00;99998.19;7392168;19;20086;-64
2023/05/01 10:17:20;;;;;;;2.67;0.52;;;;;;;15.06;100.00;100002.97;7401109;19;20117;-66
2023/05/01 10:19:48;;;;;;;3.92;0.40;;;;;;;15.06;100.00;100000.19;7401323;19;20007;-66
2023/05/01 10:22:15;;;;;;;0.77;0.43;;;;;;;15.10;100.00;100002.72;7401728;19;20082;-66
2023/05/01 10:24:45;;;;;;;0.70;0.30;;;;;;;15.09;100.00;100007.56;7399321;19;20021;-64
2023/05/01 10:27:12;;;;;;;0.43;0.43;;;;;;;14.79;100.00;100011.25;7405177;19;20010;-62
2023/05/01 10:29:41;;;;;;;1.38;0.95;;;;;;;14.54;100.00;100007.25;7400387;19;20015;-64
2023/05/01 10:32:08;;;;;;;1.60;0.43;;;;;;;14.29;100.00;100024.91;7400733;19;20021;-64
2023/05/01 10:34:41;;;;;;;0.57;0.40;;;;;;;14.06;100.00;100028.72;7406031;19;20015;-64
2023/05/01 10:37:17;;;;;;;1.85;0.68;;;;;;;13.65;100.00;100028.06;7400950;19;20411;-64
2023/05/01 10:39:43;;;;;;;0.40;0.40;;;;;;;14.00;100.00;100025.13;7399435;19;20066;-64
2023/05/01 10:42:12;;;;;;;0.82;0.32;;;;;;;13.60;100.00;100032.34;7400452;19;20382;-63
2023/05/01 10:44:41;;;;;;;1.05;0.20;;;;;;;13.18;100.00;100043.28;7397851;19;20496;-63
2023/05/01 10:47:33;;;;;;;0.85;0.50;;;;;;;13.06;100.00;100044.38;7399983;19;20036;-63
2023/05/01 10:50:06;;;;;;;0.50;0.35;;;;;;;13.06;100.00;100055.56;7399977;19;20045;-65
2023/05/01 10:53:13;;;;;;;1.98;0.57;;;;;;;13.21;100.00;100045.09;7399125;19;20007;-64
2023/05/01 10:55:44;;;;;;;0.77;0.32;;;;;;;13.84;100.00;100042.53;7401161;19;20074;-64
2023/05/01 10:58:12;;;;;;;0.50;0.20;;;;;;;13.17;100.00;100052.13;7398926;19;20038;-64
2023/05/01 11:00:39;;;;;;;2.38;0.68;;;;;;;13.19;100.00;100047.59;7399752;19;20321;-64
2023/05/01 11:03:20;;;;;;;0.75;0.40;;;;;;;13.11;100.00;100054.88;7401478;19;20071;-63
2023/05/01 11:05:59;;;;;;;5.78;0.93;;;;;;;13.26;100.00;100058.38;7403788;19;20018;-64
2023/05/01 11:08:32;;;;;;;0.50;0.45;;;;;;;12.98;100.00;100060.00;7399191;19;20015;-63
2023/05/01 11:11:21;;;;;;;1.45;0.43;;;;;;;13.12;100.00;100055.66;7399790;19;20015;-62
2023/05/01 11:13:54;;;;;;;1.15;0.73;;;;;;;13.35;100.00;100066.63;7396951;19;20010;-64
2023/05/01 11:16:39;;;;;;;4.72;0.60;;;;;;;13.48;100.00;100064.25;7400043;19;20006;-64
2023/05/01 11:19:07;;;;;;;1.30;0.30;;;;;;;13.95;100.00;100056.63;7399023;19;20014;-64
2023/05/01 11:21:35;;;;;;;1.23;0.47;;;;;;;13.82;100.00;100056.25;7397192;19;20095;-65
2023/05/01 11:24:11;;;;;;;0.47;0.30;;;;;;;14.11;100.00;100054.00;7397713;19;20010;-64
2023/05/01 11:26:38;;;;;;;5.32;0.70;;;;;;;15.05;100.00;100057.53;7397293;19;20006;-64
2023/05/01 11:29:05;;;;;;;0.10;0.10;;;;;;;14.14;100.00;100052.25;7401633;19;20474;-64
2023/05/01 11:31:32;;;;;;;0.63;0.32;;;;;;;14.22;100.00;100059.72;7398149;19;20011;-64
2023/05/01 11:33:59;;;;;;;0.38;0.38;;;;;;;14.27;100.00;100055.41;7400341;19;20014;-64